createdAt,value
2023-04-26T00:00:09.943Z,10.50
2023-04-26T00:02:38.675Z,6.50
2023-04-26T00:05:08.716Z,8.00
2023-04-26T00:07:39.205Z,10.00
2023-04-26T00:10:09.388Z,8.50
2023-04-26T00:12:38.571Z,7.75
2023-04-26T00:15:07.512Z,5.25
2023-04-26T00:17:35.995Z,6.50
2023-04-26T00:20:07.624Z,8.75
2023-04-26T00:22:36.039Z,9.50
2023-04-26T00:25:04.776Z,6.25
2023-04-26T00:27:33.319Z,9.25
2023-04-26T00:30:01.932Z,9.25
2023-04-26T00:32:32.174Z,8.25
2023-04-26T00:35:01.007Z,9.00
2023-04-26T00:37:29.867Z,6.25
2023-04-26T00:39:58.409Z,7.50
2023-04-26T00:42:29.340Z,8.50
2023-04-26T00:44:58.536Z,8.50
2023-04-26T00:47:28.078Z,7.75
2023-04-26T00:49:57.320Z,9.75
2023-04-26T00:52:27.661Z,8.00
2023-04-26T00:54:57.378Z,7.00
2023-04-26T00:57:26.161Z,8.00
2023-04-26T00:59:54.553Z,8.00
2023-04-26T01:02:23.162Z,10.50
2023-04-26T01:04:51.846Z,7.50
2023-04-26T01:07:20.253Z,5.50
2023-04-26T01:09:50.413Z,6.50
2023-04-26T01:12:19.144Z,7.00
2023-04-26T01:14:48.227Z,8.75
2023-04-26T01:17:16.705Z,8.00
2023-04-26T01:19:52.067Z,6.75
2023-04-26T01:22:20.543Z,9.00
2023-04-26T01:24:52.383Z,7.00
2023-04-26T01:27:20.867Z,7.50
2023-04-26T01:29:49.242Z,7.75
2023-04-26T01:32:17.733Z,8.00
2023-04-26T01:34:46.303Z,7.00
2023-04-26T01:37:14.742Z,7.00
2023-04-26T01:39:43.140Z,7.50
2023-04-26T01:42:11.603Z,5.75
2023-04-26T01:44:40.495Z,6.75
2023-04-26T01:47:08.841Z,8.75
2023-04-26T01:49:37.728Z,9.00
2023-04-26T01:52:06.494Z,8.00
2023-04-26T01:54:34.862Z,6.50
2023-04-26T01:57:03.660Z,6.25
2023-04-26T01:59:32.072Z,5.75
2023-04-26T02:02:00.719Z,7.25
2023-04-26T02:04:29.531Z,6.00
2023-04-26T02:06:58.309Z,7.75
2023-04-26T02:09:26.728Z,10.25
2023-04-26T02:11:55.204Z,9.00
2023-04-26T02:14:23.657Z,5.25
2023-04-26T02:16:52.870Z,8.00
2023-04-26T02:19:21.827Z,5.75
2023-04-26T02:21:59.047Z,4.50
2023-04-26T02:24:27.536Z,7.00
2023-04-26T02:26:55.981Z,5.75
2023-04-26T02:29:39.920Z,6.50
2023-04-26T02:32:11.820Z,7.25
2023-04-26T02:34:40.343Z,7.25
2023-04-26T02:37:08.897Z,7.50
2023-04-26T02:39:37.588Z,5.00
2023-04-26T02:42:11.615Z,8.25
2023-04-26T02:44:40.603Z,6.75
2023-04-26T02:47:09.077Z,6.25
2023-04-26T02:49:37.639Z,6.00
2023-04-26T02:52:06.224Z,11.25
2023-04-26T02:54:34.684Z,7.75
2023-04-26T02:57:03.107Z,9.00
2023-04-26T02:59:31.607Z,7.00
2023-04-26T03:02:00.071Z,7.50
2023-04-26T03:04:28.743Z,8.00
2023-04-26T03:06:57.189Z,9.00
2023-04-26T03:09:25.593Z,9.00
2023-04-26T03:11:55.093Z,8.75
2023-04-26T03:14:23.645Z,9.00
2023-04-26T03:16:52.399Z,7.25
2023-04-26T03:19:21.339Z,8.25
2023-04-26T03:21:49.769Z,8.00
2023-04-26T03:24:18.489Z,6.00
2023-04-26T03:26:47.221Z,9.00
2023-04-26T03:29:15.791Z,6.00
2023-04-26T03:31:44.289Z,10.75
2023-04-26T03:34:12.757Z,11.00
2023-04-26T03:36:41.214Z,9.75
2023-04-26T03:39:09.887Z,9.50
2023-04-26T03:41:40.424Z,11.00
2023-04-26T03:44:09.019Z,9.75
2023-04-26T03:46:37.480Z,10.00
2023-04-26T03:49:05.924Z,13.50
2023-04-26T03:51:34.396Z,11.25
2023-04-26T03:54:02.866Z,10.50
2023-04-26T03:56:31.225Z,13.50
2023-04-26T03:58:59.823Z,11.00
2023-04-26T04:01:28.587Z,11.50
2023-04-26T04:03:57.473Z,12.00
2023-04-26T04:06:26.270Z,13.50
2023-04-26T04:08:54.964Z,12.50
2023-04-26T04:11:24.230Z,13.00
2023-04-26T04:13:52.635Z,13.75
2023-04-26T04:16:21.228Z,13.50
2023-04-26T04:18:50.831Z,12.00
2023-04-26T04:21:19.428Z,10.75
2023-04-26T04:23:48.901Z,13.00
2023-04-26T04:26:18.428Z,11.00
2023-04-26T04:28:48.066Z,13.50
2023-04-26T04:31:16.511Z,9.75
2023-04-26T04:33:44.944Z,14.25
2023-04-26T04:36:14.064Z,14.75
2023-04-26T04:38:42.458Z,12.50
2023-04-26T04:41:11.273Z,10.50
2023-04-26T04:43:40.087Z,12.75
2023-04-26T04:46:09.592Z,13.50
2023-04-26T04:48:39.708Z,15.50
2023-04-26T04:51:09.044Z,14.25
2023-04-26T04:53:37.507Z,15.50
2023-04-26T04:56:06.310Z,13.00
2023-04-26T04:58:34.708Z,13.50
2023-04-26T05:01:03.704Z,11.50
2023-04-26T05:03:34.763Z,12.50
2023-04-26T05:06:03.684Z,16.50
2023-04-26T05:08:32.344Z,11.50
2023-04-26T05:11:00.745Z,14.75
2023-04-26T05:13:29.047Z,16.00
2023-04-26T05:15:57.453Z,12.25
2023-04-26T05:18:25.946Z,16.75
2023-04-26T05:20:54.362Z,16.25
2023-04-26T05:23:22.788Z,15.25
2023-04-26T05:25:52.051Z,16.00
2023-04-26T05:28:20.603Z,14.75
2023-04-26T05:30:49.551Z,14.50
2023-04-26T05:33:18.021Z,15.75
2023-04-26T05:35:46.858Z,15.25
2023-04-26T05:38:15.309Z,13.00
2023-04-26T05:40:43.761Z,16.50
2023-04-26T05:43:12.138Z,11.50
2023-04-26T05:45:40.650Z,12.25
2023-04-26T05:48:09.092Z,13.75
2023-04-26T05:50:39.890Z,15.75
2023-04-26T05:53:08.475Z,15.00
2023-04-26T05:55:38.587Z,13.75
2023-04-26T05:58:07.488Z,14.00
2023-04-26T06:00:36.710Z,13.25
2023-04-26T06:03:05.324Z,15.75
2023-04-26T06:05:34.268Z,15.75
2023-04-26T06:08:02.784Z,16.25
2023-04-26T06:10:31.300Z,17.75
2023-04-26T06:12:59.709Z,15.25
2023-04-26T06:15:28.829Z,20.25
2023-04-26T06:17:57.260Z,18.75
2023-04-26T06:20:25.778Z,16.50
2023-04-26T06:22:54.203Z,17.25
2023-04-26T06:25:22.629Z,17.75
2023-04-26T06:27:51.100Z,14.75
2023-04-26T06:30:19.530Z,16.25
2023-04-26T06:32:47.987Z,14.75
2023-04-26T06:35:16.512Z,17.50
2023-04-26T06:37:44.888Z,17.00
2023-04-26T06:40:16.807Z,15.50
2023-04-26T06:42:45.190Z,17.25
2023-04-26T06:45:13.791Z,19.50
2023-04-26T06:47:42.316Z,14.25
2023-04-26T06:50:11.504Z,18.50
2023-04-26T06:52:40.015Z,17.75
2023-04-26T06:55:09.204Z,16.25
2023-04-26T06:57:37.788Z,18.00
2023-04-26T07:00:07.245Z,18.00
2023-04-26T07:02:35.729Z,20.25
2023-04-26T07:05:04.344Z,22.75
2023-04-26T07:07:32.877Z,19.25
2023-04-26T07:10:01.425Z,19.25
2023-04-26T07:12:29.923Z,17.75
2023-04-26T07:14:58.693Z,19.25
2023-04-26T07:17:27.067Z,21.25
2023-04-26T07:19:56.259Z,17.25
2023-04-26T07:22:25.201Z,20.50
2023-04-26T07:24:53.587Z,22.50
2023-04-26T07:27:22.025Z,18.00
2023-04-26T07:29:50.549Z,18.75
2023-04-26T07:32:19.002Z,19.00
2023-04-26T07:34:47.619Z,16.00
2023-04-26T07:37:15.991Z,22.00
2023-04-26T07:39:44.329Z,20.75
2023-04-26T07:42:12.743Z,23.25
2023-04-26T07:44:41.242Z,24.50
2023-04-26T07:47:15.861Z,21.00
2023-04-26T07:49:45.690Z,19.25
2023-04-26T07:52:15.454Z,18.50
2023-04-26T07:54:46.570Z,18.50
2023-04-26T07:57:15.578Z,19.75
2023-04-26T07:59:44.061Z,20.25
2023-04-26T08:02:12.776Z,20.75
2023-04-26T08:04:51.283Z,23.25
2023-04-26T08:07:20.912Z,20.75
2023-04-26T08:09:50.161Z,22.00
2023-04-26T08:12:18.601Z,24.00
2023-04-26T08:14:47.464Z,23.00
2023-04-26T08:17:16.004Z,21.00
2023-04-26T08:19:44.459Z,22.75
2023-04-26T08:22:12.873Z,26.50
2023-04-26T08:24:41.344Z,26.00
2023-04-26T08:27:09.849Z,21.25
2023-04-26T08:29:38.338Z,21.50
2023-04-26T08:32:06.840Z,21.25
2023-04-26T08:34:35.252Z,22.00
2023-04-26T08:37:03.760Z,17.50
2023-04-26T08:39:32.249Z,20.50
2023-04-26T08:42:15.605Z,19.75
2023-04-26T08:44:45.312Z,26.00
2023-04-26T08:47:39.824Z,18.25
2023-04-26T08:50:09.601Z,20.50
2023-04-26T08:52:39.504Z,20.00
2023-04-26T08:55:11.037Z,22.75
2023-04-26T08:57:41.844Z,21.25
2023-04-26T09:00:14.437Z,22.75
2023-04-26T09:02:44.382Z,20.00
2023-04-26T09:05:13.284Z,24.50
2023-04-26T09:07:43.325Z,21.50
2023-04-26T09:10:13.863Z,21.75
2023-04-26T09:12:42.526Z,18.25
2023-04-26T09:15:11.654Z,24.25
2023-04-26T09:17:42.455Z,24.50
2023-04-26T09:20:31.577Z,25.00
2023-04-26T09:23:08.333Z,23.50
2023-04-26T09:25:37.662Z,20.50
2023-04-26T09:28:22.096Z,20.00
2023-04-26T09:30:50.756Z,20.25
2023-04-26T09:33:20.452Z,20.50
2023-04-26T09:35:51.740Z,17.25
2023-04-26T09:38:20.250Z,19.75
2023-04-26T09:40:52.617Z,17.75
2023-04-26T09:43:24.217Z,22.50
2023-04-26T09:45:56.405Z,18.00
2023-04-26T09:48:31.576Z,18.75
2023-04-26T09:51:10.325Z,20.00
2023-04-26T09:53:42.311Z,15.75
2023-04-26T09:56:19.868Z,18.25
2023-04-26T09:59:09.042Z,18.25
2023-04-26T10:01:37.833Z,15.50
2023-04-26T10:04:08.479Z,20.25
2023-04-26T10:06:37.477Z,17.75
2023-04-26T10:09:07.375Z,19.00
2023-04-26T10:11:37.501Z,21.00
2023-04-26T10:14:07.576Z,18.00
2023-04-26T10:16:37.754Z,18.50
2023-04-26T10:19:06.269Z,18.25
2023-04-26T10:21:39.157Z,16.25
2023-04-26T10:24:08.646Z,18.50
2023-04-26T10:26:55.631Z,15.75
2023-04-26T10:29:25.773Z,17.25
2023-04-26T10:32:17.673Z,18.75
2023-04-26T10:34:46.546Z,15.50
2023-04-26T10:37:15.665Z,18.25
2023-04-26T10:39:48.561Z,16.75
2023-04-26T10:42:28.179Z,17.25
2023-04-26T10:44:59.315Z,19.50
2023-04-26T10:47:32.740Z,21.25
2023-04-26T10:50:12.272Z,18.00
2023-04-26T10:53:06.519Z,18.25
2023-04-26T10:55:42.750Z,16.50
2023-04-26T10:58:34.445Z,23.00
2023-04-26T11:01:14.475Z,22.75
2023-04-26T11:03:43.229Z,20.50
2023-04-26T11:06:16.239Z,20.75
2023-04-26T11:08:45.531Z,23.75
2023-04-26T11:11:14.700Z,17.75
2023-04-26T11:13:44.996Z,19.50
2023-04-26T11:16:18.320Z,15.00
2023-04-26T11:18:54.357Z,18.00
2023-04-26T11:21:23.253Z,19.25
2023-04-26T11:23:56.007Z,22.00
2023-04-26T11:26:25.773Z,21.75
2023-04-26T11:28:54.556Z,18.75
2023-04-26T11:31:23.180Z,17.75
2023-04-26T11:33:51.707Z,16.75
2023-04-26T11:36:20.716Z,18.00
2023-04-26T11:38:49.655Z,18.75
2023-04-26T11:41:18.934Z,19.75
2023-04-26T11:43:47.393Z,20.50
2023-04-26T11:46:15.803Z,22.25
2023-04-26T11:48:44.540Z,23.00
2023-04-26T11:51:13.366Z,19.50
2023-04-26T11:53:43.641Z,22.50
2023-04-26T11:56:17.332Z,22.75
2023-04-26T11:58:55.391Z,21.50
2023-04-26T12:01:29.242Z,20.50
2023-04-26T12:03:59.812Z,22.25
2023-04-26T12:06:33.785Z,21.25
2023-04-26T12:09:10.109Z,21.75
2023-04-26T12:11:38.940Z,22.25
2023-04-26T12:14:08.843Z,21.75
2023-04-26T12:16:40.504Z,20.75
2023-04-26T12:19:09.871Z,19.75
2023-04-26T12:21:45.272Z,21.00
2023-04-26T12:24:28.060Z,19.25
2023-04-26T12:26:56.909Z,25.50
2023-04-26T12:29:25.535Z,20.00
2023-04-26T12:31:53.982Z,22.50
2023-04-26T12:34:22.372Z,22.50
2023-04-26T12:36:50.776Z,26.50
2023-04-26T12:39:19.178Z,25.75
2023-04-26T12:41:47.731Z,22.50
2023-04-26T12:44:16.230Z,26.50
2023-04-26T12:46:45.027Z,26.00
2023-04-26T12:49:13.575Z,26.25
2023-04-26T12:51:41.981Z,29.75
2023-04-26T12:54:10.313Z,29.00
2023-04-26T12:56:44.531Z,30.50
2023-04-26T12:59:13.187Z,26.50
2023-04-26T13:01:42.090Z,24.00
2023-04-26T13:04:11.222Z,28.00
2023-04-26T13:06:39.953Z,30.50
2023-04-26T13:09:09.100Z,28.00
2023-04-26T13:11:37.522Z,31.00
2023-04-26T13:14:08.015Z,28.00
2023-04-26T13:16:36.807Z,26.25
2023-04-26T13:19:05.282Z,29.00
2023-04-26T13:21:33.713Z,27.75
2023-04-26T13:24:02.257Z,30.25
2023-04-26T13:26:30.652Z,25.25
2023-04-26T13:28:59.101Z,27.75
2023-04-26T13:31:27.746Z,24.75
2023-04-26T13:33:56.314Z,26.25
2023-04-26T13:36:24.729Z,28.00
2023-04-26T13:38:53.099Z,24.25
2023-04-26T13:41:21.580Z,24.25
2023-04-26T13:43:49.958Z,28.75
2023-04-26T13:46:18.416Z,30.25
2023-04-26T13:48:46.825Z,27.75
2023-04-26T13:51:15.185Z,29.00
2023-04-26T13:53:43.588Z,26.75
2023-04-26T13:56:11.978Z,24.50
2023-04-26T13:58:41.776Z,25.75
2023-04-26T14:01:10.330Z,25.75
2023-04-26T14:03:38.936Z,27.50
2023-04-26T14:06:07.678Z,27.00
2023-04-26T14:08:36.525Z,28.75
2023-04-26T14:11:05.252Z,27.00
2023-04-26T14:13:33.628Z,24.50
2023-04-26T14:16:02.244Z,24.50
2023-04-26T14:18:30.756Z,26.25
2023-04-26T14:20:59.212Z,28.75
2023-04-26T14:23:27.653Z,28.50
2023-04-26T14:25:56.158Z,27.00
2023-04-26T14:28:24.787Z,30.50
2023-04-26T14:30:53.211Z,23.00
2023-04-26T14:33:23.748Z,24.00
2023-04-26T14:35:53.527Z,24.50
2023-04-26T14:38:22.221Z,23.25
2023-04-26T14:40:50.753Z,25.75
2023-04-26T14:43:19.285Z,22.50
2023-04-26T14:45:47.890Z,26.75
2023-04-26T14:48:16.779Z,27.00
2023-04-26T14:50:45.468Z,23.00
2023-04-26T14:53:13.914Z,29.00
2023-04-26T14:55:42.388Z,26.25
2023-04-26T14:58:10.768Z,27.25
2023-04-26T15:00:39.990Z,30.25
2023-04-26T15:03:08.505Z,28.25
2023-04-26T15:05:36.990Z,27.00
2023-04-26T15:08:05.633Z,27.25
2023-04-26T15:10:34.034Z,25.50
2023-04-26T15:13:02.567Z,26.50
2023-04-26T15:15:30.991Z,24.75
2023-04-26T15:17:59.536Z,25.50
2023-04-26T15:20:27.955Z,28.00
2023-04-26T15:22:56.348Z,24.25
2023-04-26T15:25:24.854Z,20.50
2023-04-26T15:27:53.273Z,25.50
2023-04-26T15:30:21.775Z,28.75
2023-04-26T15:32:51.844Z,22.25
2023-04-26T15:35:20.327Z,27.00
2023-04-26T15:37:48.914Z,26.75
2023-04-26T15:40:17.637Z,26.00
2023-04-26T15:42:46.090Z,27.25
2023-04-26T15:45:14.453Z,24.25
2023-04-26T15:47:43.024Z,24.25
2023-04-26T15:50:11.927Z,29.25
2023-04-26T15:52:41.648Z,23.25
2023-04-26T15:55:10.773Z,27.25
2023-04-26T15:57:46.521Z,28.00
2023-04-26T16:00:15.850Z,29.25
2023-04-26T16:02:46.311Z,28.25
2023-04-26T16:05:15.605Z,27.00
2023-04-26T16:07:44.729Z,28.50
2023-04-26T16:10:15.221Z,30.00
2023-04-26T16:12:45.853Z,26.75
2023-04-26T16:15:14.920Z,26.75
2023-04-26T16:17:43.371Z,30.00
2023-04-26T16:20:12.578Z,28.75
2023-04-26T16:22:40.980Z,29.25
2023-04-26T16:25:10.674Z,29.75
2023-04-26T16:27:39.144Z,31.50
2023-04-26T16:30:08.764Z,29.50
2023-04-26T16:32:37.292Z,28.50
2023-04-26T16:35:06.264Z,30.50
2023-04-26T16:37:35.439Z,28.50
2023-04-26T16:40:05.914Z,26.75
2023-04-26T16:42:34.323Z,30.50
2023-04-26T16:45:03.437Z,28.00
2023-04-26T16:47:32.341Z,27.00
2023-04-26T16:50:00.976Z,28.00
2023-04-26T16:52:29.428Z,24.50
2023-04-26T16:54:58.357Z,32.75
2023-04-26T16:57:26.873Z,25.75
2023-04-26T16:59:55.274Z,27.25
2023-04-26T17:02:23.879Z,27.25
2023-04-26T17:04:52.560Z,25.25
2023-04-26T17:07:20.999Z,29.25
2023-04-26T17:09:49.412Z,30.00
2023-04-26T17:12:17.793Z,24.50
2023-04-26T17:14:46.456Z,27.25
2023-04-26T17:17:14.934Z,29.00
2023-04-26T17:19:43.490Z,29.00
2023-04-26T17:22:13.991Z,30.25
2023-04-26T17:24:42.535Z,26.75
2023-04-26T17:27:11.000Z,29.25
2023-04-26T17:29:39.367Z,31.50
2023-04-26T17:32:07.979Z,30.25
2023-04-26T17:34:37.774Z,28.00
2023-04-26T17:37:06.175Z,30.00
2023-04-26T17:39:34.562Z,26.75
2023-04-26T17:42:07.629Z,27.75
2023-04-26T17:44:35.998Z,25.00
2023-04-26T17:47:04.488Z,25.00
2023-04-26T17:49:33.121Z,28.00
2023-04-26T17:52:01.487Z,30.50
2023-04-26T17:54:30.421Z,30.00
2023-04-26T17:56:59.445Z,25.50
2023-04-26T17:59:28.049Z,27.75
2023-04-26T18:01:56.470Z,27.75
2023-04-26T18:04:25.144Z,31.50
2023-04-26T18:06:53.655Z,24.00
2023-04-26T18:09:22.632Z,27.50
2023-04-26T18:11:51.167Z,27.25
2023-04-26T18:14:19.663Z,27.50
2023-04-26T18:16:48.164Z,28.75
2023-04-26T18:19:17.077Z,24.50
2023-04-26T18:21:45.448Z,25.00
2023-04-26T18:24:13.856Z,20.75
2023-04-26T18:26:42.498Z,24.75
2023-04-26T18:29:10.928Z,20.50
2023-04-26T18:31:39.552Z,21.00
2023-04-26T18:34:08.232Z,23.50
2023-04-26T18:36:36.987Z,22.00
2023-04-26T18:39:05.684Z,17.75
2023-04-26T18:41:34.164Z,22.25
2023-04-26T18:44:02.555Z,21.50
2023-04-26T18:46:31.086Z,20.75
2023-04-26T18:48:59.518Z,25.50
2023-04-26T18:51:28.694Z,19.50
2023-04-26T18:53:58.603Z,23.25
2023-04-26T18:56:27.240Z,23.75
2023-04-26T18:58:56.139Z,18.50
2023-04-26T19:01:26.733Z,19.25
2023-04-26T19:03:55.576Z,18.25
2023-04-26T19:06:24.195Z,23.25
2023-04-26T19:08:52.936Z,22.50
2023-04-26T19:11:21.396Z,22.50
2023-04-26T19:13:49.794Z,19.25
2023-04-26T19:16:18.463Z,20.25
2023-04-26T19:18:48.234Z,20.00
2023-04-26T19:21:17.285Z,22.00
2023-04-26T19:23:46.730Z,22.00
2023-04-26T19:26:15.344Z,26.25
2023-04-26T19:28:43.770Z,18.50
2023-04-26T19:31:16.000Z,23.75
2023-04-26T19:33:45.630Z,28.75
2023-04-26T19:36:15.009Z,24.75
2023-04-26T19:38:43.928Z,18.00
2023-04-26T19:41:13.024Z,18.75
2023-04-26T19:43:41.384Z,21.00
2023-04-26T19:46:14.450Z,20.25
2023-04-26T19:48:43.363Z,20.50
2023-04-26T19:51:18.349Z,19.25
2023-04-26T19:53:46.798Z,18.75
2023-04-26T19:56:15.262Z,16.50
2023-04-26T19:58:45.000Z,19.25
2023-04-26T20:01:13.427Z,17.75
2023-04-26T20:03:42.562Z,12.00
2023-04-26T20:06:12.698Z,14.00
2023-04-26T20:08:42.085Z,13.75
2023-04-26T20:11:15.829Z,11.00
2023-04-26T20:13:44.719Z,16.00
2023-04-26T20:16:14.017Z,12.25
2023-04-26T20:18:42.446Z,15.50
2023-04-26T20:21:10.839Z,13.25
2023-04-26T20:23:39.253Z,13.25
2023-04-26T20:26:07.671Z,13.25
2023-04-26T20:28:37.516Z,12.50
2023-04-26T20:31:08.028Z,14.50
2023-04-26T20:33:36.443Z,11.75
2023-04-26T20:36:04.912Z,12.50
2023-04-26T20:38:33.797Z,11.50
2023-04-26T20:41:02.165Z,12.75
2023-04-26T20:43:30.528Z,12.75
2023-04-26T20:45:59.447Z,12.25
2023-04-26T20:48:27.824Z,12.75
2023-04-26T20:50:56.740Z,10.50
2023-04-26T20:53:25.402Z,10.25
2023-04-26T20:55:54.845Z,12.50
2023-04-26T20:58:23.865Z,13.50
2023-04-26T21:00:53.733Z,12.25
2023-04-26T21:03:22.547Z,12.25
2023-04-26T21:05:51.229Z,14.00
2023-04-26T21:08:19.630Z,10.75
2023-04-26T21:10:48.761Z,13.00
2023-04-26T21:13:17.205Z,10.75
2023-04-26T21:15:45.602Z,11.75
2023-04-26T21:18:14.697Z,10.75
2023-04-26T21:20:43.045Z,10.75
2023-04-26T21:23:12.807Z,13.25
2023-04-26T21:25:46.987Z,8.75
2023-04-26T21:28:19.322Z,11.00
2023-04-26T21:30:48.252Z,9.25
2023-04-26T21:33:17.607Z,9.75
2023-04-26T21:35:47.104Z,11.50
2023-04-26T21:38:18.177Z,9.25
2023-04-26T21:40:46.956Z,10.25
2023-04-26T21:43:18.943Z,12.75
2023-04-26T21:46:10.720Z,9.25
2023-04-26T21:48:40.240Z,7.00
2023-04-26T21:51:08.689Z,14.00
2023-04-26T21:53:46.705Z,8.75
2023-04-26T21:56:17.708Z,10.75
2023-04-26T21:58:47.716Z,7.50
2023-04-26T22:01:17.803Z,7.00
2023-04-26T22:03:46.410Z,8.00
2023-04-26T22:06:14.958Z,11.00
2023-04-26T22:08:43.434Z,10.50
2023-04-26T22:11:12.018Z,9.25
2023-04-26T22:13:40.856Z,7.00
2023-04-26T22:16:09.315Z,8.00
2023-04-26T22:18:37.764Z,8.25
2023-04-26T22:21:06.175Z,8.25
2023-04-26T22:23:34.913Z,7.25
2023-04-26T22:26:03.524Z,8.75
2023-04-26T22:28:32.091Z,9.75
2023-04-26T22:31:00.500Z,8.50
2023-04-26T22:33:28.978Z,8.50
2023-04-26T22:36:00.989Z,9.00
2023-04-26T22:38:34.409Z,7.00
2023-04-26T22:41:02.842Z,9.25
2023-04-26T22:43:32.115Z,9.00
2023-04-26T22:46:02.495Z,6.50
2023-04-26T22:48:32.693Z,87.25
2023-04-26T22:51:01.074Z,10.00
2023-04-26T22:53:29.472Z,7.75
2023-04-26T22:55:58.687Z,9.00
2023-04-26T22:58:27.192Z,10.00
2023-04-26T23:00:55.749Z,9.00
2023-04-26T23:03:24.268Z,9.50
2023-04-26T23:05:52.788Z,13.00
2023-04-26T23:08:21.190Z,9.50
2023-04-26T23:10:49.630Z,8.50
2023-04-26T23:13:18.012Z,9.25
2023-04-26T23:15:46.626Z,8.75
2023-04-26T23:18:15.482Z,10.25
2023-04-26T23:20:43.940Z,10.00
2023-04-26T23:23:12.546Z,18.50
2023-04-26T23:25:43.116Z,7.75
2023-04-26T23:28:11.524Z,9.75
2023-04-26T23:30:41.103Z,12.50
2023-04-26T23:33:09.594Z,10.50
2023-04-26T23:35:42.863Z,8.25
2023-04-26T23:38:11.314Z,10.00
2023-04-26T23:40:39.729Z,9.25
2023-04-26T23:43:08.186Z,10.25
2023-04-26T23:45:36.581Z,9.50
2023-04-26T23:48:05.139Z,8.75
2023-04-26T23:50:33.586Z,9.75
2023-04-26T23:53:04.399Z,9.75
2023-04-26T23:55:33.285Z,11.00
2023-04-26T23:58:02.036Z,11.75
